createdAt,value
2017-04-28T00:00:20.454Z,30.94
2017-04-28T00:01:30.677Z,30.94
2017-04-28T00:02:41.053Z,31.14
2017-04-28T00:03:50.657Z,30.94
2017-04-28T00:05:00.860Z,31.04
2017-04-28T00:06:10.780Z,30.94
2017-04-28T00:07:20.722Z,31.04
2017-04-28T00:08:30.761Z,31.04
2017-04-28T00:09:40.661Z,31.14
2017-04-28T00:10:50.870Z,30.94
2017-04-28T00:12:01.078Z,30.94
2017-04-28T00:13:10.685Z,30.94
2017-04-28T00:14:21.047Z,31.14
2017-04-28T00:15:30.950Z,31.04
2017-04-28T00:16:41.166Z,31.04
2017-04-28T00:17:51.065Z,30.94
2017-04-28T00:19:01.272Z,31.04
2017-04-28T00:20:11.326Z,30.85
2017-04-28T00:21:21.562Z,31.04
2017-04-28T00:22:31.475Z,31.04
2017-04-28T00:23:41.390Z,30.85
2017-04-28T00:24:50.999Z,30.85
2017-04-28T00:26:01.066Z,30.85
2017-04-28T00:27:11.296Z,30.85
2017-04-28T00:28:20.912Z,31.14
2017-04-28T00:29:30.827Z,30.94
2017-04-28T00:30:40.439Z,30.85
2017-04-28T00:31:50.815Z,31.04
2017-04-28T00:33:00.721Z,31.04
2017-04-28T00:34:10.623Z,31.04
2017-04-28T00:35:20.259Z,30.94
2017-04-28T00:36:30.170Z,31.04
2017-04-28T00:37:39.877Z,30.94
2017-04-28T00:38:50.085Z,30.85
2017-04-28T00:40:00.315Z,30.85
2017-04-28T00:41:09.920Z,30.85
2017-04-28T00:42:20.134Z,30.85
2017-04-28T00:43:29.533Z,30.85
2017-04-28T00:44:39.440Z,30.85
2017-04-28T00:45:49.656Z,31.04
2017-04-28T00:46:59.876Z,30.85
2017-04-28T00:48:10.095Z,30.85
2017-04-28T00:49:19.799Z,30.85
2017-04-28T00:50:29.714Z,30.83
2017-04-28T00:51:39.938Z,30.83
2017-04-28T00:52:50.156Z,30.85
2017-04-28T00:54:00.060Z,30.85
2017-04-28T00:55:10.115Z,30.85
2017-04-28T00:56:20.031Z,30.74
2017-04-28T00:57:29.955Z,30.94
2017-04-28T00:58:40.201Z,30.94
2017-04-28T00:59:49.799Z,30.93
2017-04-28T01:00:59.513Z,30.76
2017-04-28T01:02:09.716Z,30.83
2017-04-28T01:03:19.926Z,30.94
2017-04-28T01:04:30.142Z,30.85
2017-04-28T01:05:40.055Z,30.76
2017-04-28T01:06:50.105Z,30.94
2017-04-28T01:08:00.310Z,30.94
2017-04-28T01:09:10.522Z,30.93
2017-04-28T01:10:20.733Z,30.93
2017-04-28T01:11:30.636Z,30.83
2017-04-28T01:12:41.034Z,30.83
2017-04-28T01:13:50.627Z,30.93
2017-04-28T01:15:00.826Z,30.94
2017-04-28T01:16:10.123Z,30.93
2017-04-28T01:17:20.028Z,30.74
2017-04-28T01:18:30.517Z,30.83
2017-04-28T01:19:40.422Z,30.93
2017-04-28T01:20:50.625Z,30.74
2017-04-28T01:22:00.837Z,30.93
2017-04-28T01:23:10.436Z,30.93
2017-04-28T01:24:20.198Z,30.93
2017-04-28T01:25:30.099Z,30.93
2017-04-28T01:26:40.001Z,30.93
2017-04-28T01:27:50.204Z,30.93
2017-04-28T01:29:00.410Z,31.03
2017-04-28T01:30:10.779Z,30.83
2017-04-28T01:31:20.675Z,30.93
2017-04-28T01:32:30.261Z,30.83
2017-04-28T01:33:40.491Z,31.03
2017-04-28T01:34:50.701Z,30.83
2017-04-28T01:36:01.250Z,30.74
2017-04-28T01:37:11.474Z,31.03
2017-04-28T01:38:21.073Z,30.93
2017-04-28T01:39:30.362Z,31.03
2017-04-28T01:40:40.335Z,30.93
2017-04-28T01:41:50.086Z,30.83
2017-04-28T01:43:00.316Z,30.83
2017-04-28T01:44:10.520Z,30.74
2017-04-28T01:45:20.727Z,30.74
2017-04-28T01:46:30.938Z,30.83
2017-04-28T01:47:41.358Z,30.93
2017-04-28T01:48:51.270Z,30.83
2017-04-28T01:50:01.183Z,30.83
2017-04-28T01:51:10.784Z,30.93
2017-04-28T01:52:20.691Z,30.83
2017-04-28T01:53:31.040Z,30.74
2017-04-28T01:54:41.256Z,30.83
2017-04-28T01:55:50.854Z,30.74
2017-04-28T01:57:01.067Z,30.83
2017-04-28T01:58:10.965Z,30.74
2017-04-28T01:59:20.713Z,30.74
2017-04-28T02:00:30.620Z,30.93
2017-04-28T02:01:40.559Z,30.83
2017-04-28T02:02:50.471Z,30.83
2017-04-28T02:04:00.391Z,30.74
2017-04-28T02:05:10.473Z,30.74
2017-04-28T02:06:20.366Z,30.74
2017-04-28T02:07:29.977Z,30.74
2017-04-28T02:08:40.175Z,30.83
2017-04-28T02:09:50.084Z,30.64
2017-04-28T02:11:00.444Z,30.83
2017-04-28T02:12:10.353Z,30.83
2017-04-28T02:13:20.562Z,30.93
2017-04-28T02:14:30.501Z,30.83
2017-04-28T02:15:40.403Z,30.74
2017-04-28T02:16:50.758Z,30.83
2017-04-28T02:18:00.667Z,30.83
2017-04-28T02:19:10.563Z,30.83
2017-04-28T02:20:20.760Z,30.74
2017-04-28T02:21:30.661Z,30.74
2017-04-28T02:22:41.120Z,30.83
2017-04-28T02:23:51.021Z,30.64
2017-04-28T02:25:00.920Z,30.93
2017-04-28T02:26:10.201Z,30.74
2017-04-28T02:27:20.106Z,30.64
2017-04-28T02:28:30.459Z,30.74
2017-04-28T02:29:40.680Z,30.93
2017-04-28T02:30:50.928Z,30.74
2017-04-28T02:32:00.831Z,30.74
2017-04-28T02:33:10.430Z,30.74
2017-04-28T02:34:20.583Z,30.83
2017-04-28T02:35:30.490Z,30.74
2017-04-28T02:36:40.385Z,30.64
2017-04-28T02:37:49.972Z,30.64
2017-04-28T02:38:59.569Z,30.74
2017-04-28T02:40:09.480Z,30.64
2017-04-28T02:41:19.384Z,30.74
2017-04-28T02:42:29.308Z,30.74
2017-04-28T02:43:39.205Z,30.64
2017-04-28T02:44:48.812Z,30.83
2017-04-28T02:45:58.814Z,30.83
2017-04-28T02:47:09.026Z,30.74
2017-04-28T02:48:18.616Z,30.64
2017-04-28T02:49:28.816Z,30.64
2017-04-28T02:50:39.034Z,30.83
2017-04-28T02:51:48.733Z,30.55
2017-04-28T02:52:58.943Z,30.74
2017-04-28T02:54:08.868Z,30.74
2017-04-28T02:55:19.090Z,30.74
2017-04-28T02:56:28.998Z,30.64
2017-04-28T02:57:38.998Z,30.64
2017-04-28T02:58:48.893Z,30.64
2017-04-28T02:59:58.804Z,30.64
2017-04-28T03:01:08.710Z,30.64
2017-04-28T03:02:18.926Z,30.74
2017-04-28T03:03:28.670Z,30.64
2017-04-28T03:04:38.570Z,30.64
2017-04-28T03:05:48.780Z,30.74
2017-04-28T03:06:58.981Z,30.55
2017-04-28T03:08:08.573Z,30.64
2017-04-28T03:09:18.271Z,30.55
2017-04-28T03:10:28.486Z,30.64
2017-04-28T03:11:38.383Z,30.74
2017-04-28T03:12:48.598Z,30.64
2017-04-28T03:13:58.539Z,30.74
2017-04-28T03:15:08.277Z,30.74
2017-04-28T03:16:18.183Z,30.74
2017-04-28T03:17:28.384Z,30.74
2017-04-28T03:18:38.596Z,30.74
2017-04-28T03:19:48.500Z,30.74
2017-04-28T03:20:58.703Z,30.55
2017-04-28T03:22:08.301Z,30.64
2017-04-28T03:23:18.235Z,30.74
2017-04-28T03:24:28.452Z,30.55
2017-04-28T03:25:38.655Z,30.26
2017-04-28T03:26:49.017Z,30.74
2017-04-28T03:27:58.929Z,30.64
2017-04-28T03:29:08.836Z,30.55
2017-04-28T03:30:18.436Z,30.45
2017-04-28T03:31:28.035Z,30.35
2017-04-28T03:32:38.387Z,30.64
2017-04-28T03:33:48.633Z,30.43
2017-04-28T03:34:58.547Z,30.35
2017-04-28T03:36:08.444Z,30.55
2017-04-28T03:37:17.741Z,30.45
2017-04-28T03:38:27.788Z,30.53
2017-04-28T03:39:37.702Z,30.55
2017-04-28T03:40:47.914Z,30.55
2017-04-28T03:41:58.128Z,30.45
2017-04-28T03:43:08.027Z,30.64
2017-04-28T03:44:17.781Z,30.55
2017-04-28T03:45:28.021Z,30.74
2017-04-28T03:46:38.307Z,30.55
2017-04-28T03:47:47.899Z,30.53
2017-04-28T03:48:57.808Z,30.43
2017-04-28T03:50:07.556Z,30.45
2017-04-28T03:51:17.154Z,30.34
2017-04-28T03:52:27.360Z,30.34
2017-04-28T03:53:37.258Z,30.35
2017-04-28T03:54:46.861Z,30.64
2017-04-28T03:55:57.228Z,30.35
2017-04-28T03:57:07.444Z,30.43
2017-04-28T03:58:17.060Z,30.26
2017-04-28T03:59:27.014Z,30.34
2017-04-28T04:00:37.235Z,30.34
2017-04-28T04:01:47.318Z,30.24
2017-04-28T04:02:56.937Z,30.43
2017-04-28T04:04:06.235Z,30.45
2017-04-28T04:05:15.539Z,30.45
2017-04-28T04:06:25.768Z,30.43
2017-04-28T04:07:36.127Z,30.34
2017-04-28T04:08:46.338Z,30.45
2017-04-28T04:09:56.257Z,30.45
2017-04-28T04:11:05.861Z,30.34
2017-04-28T04:12:15.773Z,30.53
2017-04-28T04:13:25.818Z,30.43
2017-04-28T04:14:35.718Z,30.43
2017-04-28T04:15:45.944Z,30.53
2017-04-28T04:16:55.257Z,30.45
2017-04-28T04:18:04.860Z,30.43
2017-04-28T04:19:14.626Z,30.45
2017-04-28T04:20:24.836Z,30.45
2017-04-28T04:21:34.780Z,30.63
2017-04-28T04:22:44.691Z,30.45
2017-04-28T04:23:54.593Z,30.45
2017-04-28T04:25:05.058Z,29.95
2017-04-28T04:26:14.661Z,30.26
2017-04-28T04:27:24.881Z,29.95
2017-04-28T04:28:34.804Z,30.15
2017-04-28T04:29:44.744Z,29.95
2017-04-28T04:30:55.119Z,30.07
2017-04-28T04:32:04.423Z,30.35
2017-04-28T04:33:14.349Z,30.34
2017-04-28T04:34:23.341Z,29.97
2017-04-28T04:35:33.545Z,30.16
2017-04-28T04:36:43.284Z,30.45
2017-04-28T04:37:52.575Z,30.26
2017-04-28T04:39:02.801Z,30.26
2017-04-28T04:40:12.710Z,29.97
2017-04-28T04:41:22.322Z,30.07
2017-04-28T04:42:32.424Z,30.07
2017-04-28T04:43:42.346Z,30.16
2017-04-28T04:44:51.994Z,29.77
2017-04-28T04:46:01.949Z,29.87
2017-04-28T04:47:12.160Z,29.87
2017-04-28T04:48:22.237Z,29.77
2017-04-28T04:49:32.463Z,29.87
2017-04-28T04:50:42.679Z,30.07
2017-04-28T04:51:52.897Z,29.87
2017-04-28T04:53:02.819Z,29.58
2017-04-28T04:54:12.576Z,29.39
2017-04-28T04:55:22.176Z,29.49
2017-04-28T04:56:32.121Z,29.41
2017-04-28T04:57:41.411Z,29.41
2017-04-28T04:58:51.311Z,29.11
2017-04-28T05:00:01.677Z,29.02
2017-04-28T05:01:11.619Z,29.41
2017-04-28T05:02:21.582Z,28.83
2017-04-28T05:03:31.207Z,29.11
2017-04-28T05:04:41.442Z,29.03
2017-04-28T05:05:51.543Z,29.03
2017-04-28T05:07:01.757Z,28.84
2017-04-28T05:08:11.373Z,28.55
2017-04-28T05:09:20.689Z,28.55
2017-04-28T05:10:30.608Z,28.37
2017-04-28T05:11:40.965Z,27.8
2017-04-28T05:12:51.188Z,27.89
2017-04-28T05:14:00.804Z,27.6
2017-04-28T05:15:11.045Z,27.51
2017-04-28T05:16:20.337Z,27.23
2017-04-28T05:17:30.097Z,27.14
2017-04-28T05:18:39.432Z,27.34
2017-04-28T05:19:48.723Z,26.76
2017-04-28T05:20:58.936Z,26.57
2017-04-28T05:22:09.156Z,26.77
2017-04-28T05:23:19.528Z,26.39
2017-04-28T05:24:29.782Z,26.48
2017-04-28T05:25:39.389Z,26.48
2017-04-28T05:26:49.318Z,26.3
2017-04-28T05:27:59.533Z,26.2
2017-04-28T05:29:09.289Z,25.92
2017-04-28T05:30:18.901Z,26.2
2017-04-28T05:31:28.802Z,25.54
2017-04-28T05:32:38.715Z,25.54
2017-04-28T05:33:48.335Z,25.07
2017-04-28T05:34:57.789Z,24.39
2017-04-28T05:36:07.732Z,24.3
2017-04-28T05:37:17.651Z,24.3
2017-04-28T05:38:27.267Z,23.83
2017-04-28T05:39:36.598Z,23.74
2017-04-28T05:40:46.995Z,23.36
2017-04-28T05:41:57.219Z,23.46
2017-04-28T05:43:07.451Z,22.79
2017-04-28T05:44:17.427Z,22.61
2017-04-28T05:45:27.831Z,22.61
2017-04-28T05:46:37.604Z,22.52
2017-04-28T05:47:47.829Z,22.23
2017-04-28T05:48:57.752Z,22.23
2017-04-28T05:50:07.667Z,22.14
2017-04-28T05:51:17.575Z,22.34
2017-04-28T05:52:27.635Z,22.24
2017-04-28T05:53:37.554Z,22.53
2017-04-28T05:54:47.762Z,22.44
2017-04-28T05:55:57.972Z,22.62
2017-04-28T05:57:07.885Z,22.91
2017-04-28T05:58:18.244Z,22.91
2017-04-28T05:59:28.453Z,23.39
2017-04-28T06:00:38.417Z,23.39
2017-04-28T06:01:48.333Z,23.38
2017-04-28T06:02:58.253Z,23.68
2017-04-28T06:04:08.007Z,23.68
2017-04-28T06:05:17.934Z,23.77
2017-04-28T06:06:27.539Z,23.48
2017-04-28T06:07:37.458Z,23.39
2017-04-28T06:08:47.402Z,23.1
2017-04-28T06:09:57.483Z,23.02
2017-04-28T06:11:07.702Z,22.72
2017-04-28T06:12:17.338Z,22.82
2017-04-28T06:13:27.571Z,22.54
2017-04-28T06:14:37.482Z,22.63
2017-04-28T06:15:48.218Z,23.02
2017-04-28T06:16:57.830Z,23.11
2017-04-28T06:18:08.057Z,23.41
2017-04-28T06:19:18.363Z,23.49
2017-04-28T06:20:28.577Z,23.69
2017-04-28T06:21:38.656Z,23.96
2017-04-28T06:22:48.561Z,23.79
2017-04-28T06:23:58.470Z,24.16
2017-04-28T06:25:08.383Z,24.06
2017-04-28T06:26:18.292Z,24.26
2017-04-28T06:27:28.348Z,24.84
2017-04-28T06:28:38.257Z,24.45
2017-04-28T06:29:48.475Z,24.63
2017-04-28T06:30:58.389Z,24.83
2017-04-28T06:32:08.612Z,24.73
2017-04-28T06:33:18.691Z,25.02
2017-04-28T06:34:28.595Z,24.92
2017-04-28T06:35:38.808Z,25.12
2017-04-28T06:36:48.731Z,25.2
2017-04-28T06:37:59.007Z,25.2
2017-04-28T06:39:09.070Z,25.4
2017-04-28T06:40:18.993Z,25.3
2017-04-28T06:41:29.219Z,25.4
2017-04-28T06:42:39.129Z,25.59
2017-04-28T06:43:49.359Z,25.49
2017-04-28T06:44:59.737Z,25.59
2017-04-28T06:46:09.635Z,25.59
2017-04-28T06:47:19.603Z,25.68
2017-04-28T06:48:29.237Z,26.06
2017-04-28T06:49:39.476Z,26.16
2017-04-28T06:50:49.220Z,26.26
2017-04-28T06:51:59.141Z,26.06
2017-04-28T06:53:09.361Z,25.96
2017-04-28T06:54:19.266Z,25.96
2017-04-28T06:55:28.877Z,25.96
2017-04-28T06:56:39.034Z,26.06
2017-04-28T06:57:48.947Z,26.06
2017-04-28T06:58:59.169Z,26.06
2017-04-28T07:00:08.778Z,25.96
2017-04-28T07:01:18.693Z,25.96
2017-04-28T07:02:29.048Z,25.87
2017-04-28T07:03:38.964Z,26.64
2017-04-28T07:04:48.566Z,26.43
2017-04-28T07:05:58.178Z,26.43
2017-04-28T07:07:08.093Z,26.73
2017-04-28T07:08:18.100Z,26.73
2017-04-28T07:09:27.696Z,26.73
2017-04-28T07:10:37.295Z,27.1
2017-04-28T07:11:47.500Z,27.39
2017-04-28T07:12:57.418Z,27.1
2017-04-28T07:14:07.743Z,27.2
2017-04-28T07:15:17.660Z,27.47
2017-04-28T07:16:27.570Z,27.39
2017-04-28T07:17:37.177Z,27.28
2017-04-28T07:18:47.091Z,27.86
2017-04-28T07:19:57.106Z,27.67
2017-04-28T07:21:07.006Z,27.67
2017-04-28T07:22:16.602Z,27.76
2017-04-28T07:23:26.197Z,27.75
2017-04-28T07:24:35.831Z,27.96
2017-04-28T07:25:45.848Z,28.04
2017-04-28T07:26:55.867Z,28.04
2017-04-28T07:28:06.081Z,27.94
2017-04-28T07:29:16.325Z,28.04
2017-04-28T07:30:26.584Z,27.85
2017-04-28T07:31:36.677Z,27.85
2017-04-28T07:32:46.678Z,28.23
2017-04-28T07:33:56.640Z,28.31
2017-04-28T07:35:06.578Z,28.51
2017-04-28T07:36:16.193Z,28.41
2017-04-28T07:37:25.938Z,28.41
2017-04-28T07:38:35.861Z,28.41
2017-04-28T07:39:46.062Z,28.51
2017-04-28T07:40:55.662Z,28.51
2017-04-28T07:42:05.559Z,28.7
2017-04-28T07:43:15.603Z,28.7
2017-04-28T07:44:25.208Z,28.7
2017-04-28T07:45:35.133Z,28.7
2017-04-28T07:46:44.732Z,28.59
2017-04-28T07:47:55.335Z,28.78
2017-04-28T07:49:05.181Z,28.78
2017-04-28T07:50:14.478Z,28.78
2017-04-28T07:51:24.684Z,28.69
2017-04-28T07:52:34.891Z,28.59
2017-04-28T07:53:44.514Z,28.69
2017-04-28T07:54:54.603Z,28.88
2017-04-28T07:56:03.897Z,28.88
2017-04-28T07:57:14.142Z,28.98
2017-04-28T07:58:24.351Z,28.78
2017-04-28T07:59:34.245Z,28.78
2017-04-28T08:00:43.984Z,28.98
2017-04-28T08:01:53.569Z,28.78
2017-04-28T08:03:03.776Z,28.78
2017-04-28T08:04:13.674Z,28.98
2017-04-28T08:05:23.574Z,28.97
2017-04-28T08:06:33.935Z,28.97
2017-04-28T08:07:44.157Z,28.97
2017-04-28T08:08:54.056Z,28.97
2017-04-28T08:10:03.999Z,29.06
2017-04-28T08:11:13.902Z,28.87
2017-04-28T08:12:23.968Z,28.67
2017-04-28T08:13:33.576Z,28.98
2017-04-28T08:14:43.171Z,28.87
2017-04-28T08:15:53.406Z,28.98
2017-04-28T08:17:03.613Z,28.58
2017-04-28T08:18:13.975Z,28.58
2017-04-28T08:19:23.904Z,28.97
2017-04-28T08:20:33.817Z,28.67
2017-04-28T08:21:44.028Z,28.58
2017-04-28T08:22:53.651Z,28.77
2017-04-28T08:24:04.022Z,28.67
2017-04-28T08:25:13.608Z,28.69
2017-04-28T08:26:23.216Z,28.67
2017-04-28T08:27:33.129Z,28.58
2017-04-28T08:28:43.401Z,28.77
2017-04-28T08:29:53.153Z,28.77
2017-04-28T08:31:03.365Z,28.77
2017-04-28T08:32:13.585Z,28.67
2017-04-28T08:33:23.506Z,28.67
2017-04-28T08:34:33.722Z,28.48
2017-04-28T08:35:44.102Z,28.4
2017-04-28T08:36:54.328Z,28.5
2017-04-28T08:38:03.926Z,27.82
2017-04-28T08:39:13.869Z,28.11
2017-04-28T08:40:23.774Z,27.82
2017-04-28T08:41:34.138Z,27.92
2017-04-28T08:42:43.740Z,27.82
2017-04-28T08:43:53.339Z,28.02
2017-04-28T08:45:03.259Z,27.72
2017-04-28T08:46:12.581Z,27.82
2017-04-28T08:47:22.948Z,27.55
2017-04-28T08:48:32.553Z,27.73
2017-04-28T08:49:42.763Z,27.83
2017-04-28T08:50:52.983Z,27.25
2017-04-28T08:52:02.891Z,27.45
2017-04-28T08:53:12.973Z,27.25
2017-04-28T08:54:22.566Z,27.45
2017-04-28T08:55:32.172Z,27.55
2017-04-28T08:56:42.078Z,27.45
2017-04-28T08:57:52.012Z,27.45
2017-04-28T08:59:02.529Z,27.45
2017-04-28T09:00:12.124Z,27.64
2017-04-28T09:01:21.716Z,27.35
2017-04-28T09:02:31.021Z,27.25
2017-04-28T09:03:40.918Z,27.15
2017-04-28T09:04:50.623Z,26.98
2017-04-28T09:06:00.831Z,26.98
2017-04-28T09:07:11.121Z,27.26
2017-04-28T09:08:21.040Z,26.88
2017-04-28T09:09:30.955Z,26.87
2017-04-28T09:10:40.655Z,26.98
2017-04-28T09:11:50.287Z,27.17
2017-04-28T09:13:00.865Z,27.08
2017-04-28T09:14:10.474Z,27.08
2017-04-28T09:15:20.374Z,26.98
2017-04-28T09:16:30.696Z,26.98
2017-04-28T09:17:40.642Z,27.17
2017-04-28T09:18:50.860Z,27.08
2017-04-28T09:20:00.483Z,26.88
2017-04-28T09:21:09.954Z,26.98
2017-04-28T09:22:20.224Z,26.88
2017-04-28T09:23:29.862Z,26.88
2017-04-28T09:24:39.806Z,26.78
2017-04-28T09:25:49.724Z,26.68
2017-04-28T09:26:59.935Z,26.59
2017-04-28T09:28:09.952Z,26.68
2017-04-28T09:29:20.211Z,26.68
2017-04-28T09:30:30.128Z,26.59
2017-04-28T09:31:40.373Z,26.68
2017-04-28T09:32:50.327Z,26.78
2017-04-28T09:34:00.469Z,26.59
2017-04-28T09:35:09.780Z,26.59
2017-04-28T09:36:19.720Z,26.4
2017-04-28T09:37:29.968Z,26.78
2017-04-28T09:38:39.873Z,26.4
2017-04-28T09:39:49.616Z,26.5
2017-04-28T09:40:59.820Z,26.59
2017-04-28T09:42:09.740Z,26.98
2017-04-28T09:43:19.683Z,26.68
2017-04-28T09:44:29.599Z,26.59
2017-04-28T09:45:39.355Z,26.59
2017-04-28T09:46:49.286Z,26.59
2017-04-28T09:47:58.922Z,26.59
2017-04-28T09:49:08.834Z,26.59
2017-04-28T09:50:18.744Z,26.59
2017-04-28T09:51:28.804Z,26.68
2017-04-28T09:52:39.017Z,26.68
2017-04-28T09:53:49.234Z,26.59
2017-04-28T09:54:59.135Z,26.78
2017-04-28T09:56:09.037Z,26.78
2017-04-28T09:57:19.085Z,26.68
2017-04-28T09:58:29.222Z,26.59
2017-04-28T09:59:38.826Z,26.59
2017-04-28T10:00:48.417Z,26.59
2017-04-28T10:01:58.629Z,26.68
2017-04-28T10:03:08.378Z,26.59
2017-04-28T10:04:18.289Z,26.68
2017-04-28T10:05:28.202Z,26.59
2017-04-28T10:06:38.402Z,26.88
2017-04-28T10:07:48.002Z,26.88
2017-04-28T10:08:58.371Z,27.08
2017-04-28T10:10:08.618Z,26.88
2017-04-28T10:11:18.539Z,27.17
2017-04-28T10:12:28.753Z,26.88
2017-04-28T10:13:38.987Z,26.78
2017-04-28T10:14:48.529Z,27.17
2017-04-28T10:15:57.822Z,26.98
2017-04-28T10:17:07.731Z,26.98
2017-04-28T10:18:17.357Z,26.88
2017-04-28T10:19:27.272Z,26.98
2017-04-28T10:20:37.628Z,27.08
2017-04-28T10:21:47.225Z,27.06
2017-04-28T10:22:56.825Z,27.17
2017-04-28T10:24:07.074Z,27.08
2017-04-28T10:25:17.298Z,27.15
2017-04-28T10:26:27.368Z,27.06
2017-04-28T10:27:36.973Z,26.97
2017-04-28T10:28:47.187Z,27.15
2017-04-28T10:29:56.779Z,26.97
2017-04-28T10:31:07.015Z,27.15
2017-04-28T10:32:17.374Z,27.15
2017-04-28T10:33:27.284Z,27.35
2017-04-28T10:34:37.186Z,27.45
2017-04-28T10:35:46.796Z,27.55
2017-04-28T10:36:56.700Z,27.35
2017-04-28T10:38:06.759Z,27.45
2017-04-28T10:39:16.391Z,27.15
2017-04-28T10:40:26.619Z,27.34
2017-04-28T10:41:36.517Z,27.55
2017-04-28T10:42:46.725Z,27.44
2017-04-28T10:43:56.878Z,27.53
2017-04-28T10:45:06.796Z,27.62
2017-04-28T10:46:16.393Z,27.72
2017-04-28T10:47:25.984Z,27.53
2017-04-28T10:48:35.310Z,27.62
2017-04-28T10:49:45.065Z,27.72
2017-04-28T10:50:54.352Z,27.62
2017-04-28T10:52:03.950Z,27.62
2017-04-28T10:53:14.166Z,27.72
2017-04-28T10:54:23.814Z,27.62
2017-04-28T10:55:34.191Z,27.24
2017-04-28T10:56:44.100Z,27.44
2017-04-28T10:57:53.710Z,27.35
2017-04-28T10:59:03.629Z,27.44
2017-04-28T11:00:13.537Z,27.34
2017-04-28T11:01:23.582Z,27.45
2017-04-28T11:02:33.486Z,27.44
2017-04-28T11:03:43.699Z,27.34
2017-04-28T11:04:53.903Z,27.15
2017-04-28T11:06:04.112Z,27.44
2017-04-28T11:07:14.113Z,27.44
2017-04-28T11:08:24.390Z,27.34
2017-04-28T11:09:34.325Z,27.62
2017-04-28T11:10:44.540Z,27.44
2017-04-28T11:11:54.449Z,27.24
2017-04-28T11:13:04.758Z,27.72
2017-04-28T11:14:14.670Z,27.72
2017-04-28T11:15:24.610Z,27.62
2017-04-28T11:16:34.516Z,27.62
2017-04-28T11:17:43.817Z,27.72
2017-04-28T11:18:53.846Z,27.53
2017-04-28T11:20:03.460Z,27.72
2017-04-28T11:21:13.675Z,27.62
2017-04-28T11:22:23.582Z,27.53
2017-04-28T11:23:33.479Z,27.72
2017-04-28T11:24:43.181Z,27.62
2017-04-28T11:25:52.478Z,27.72
2017-04-28T11:27:01.786Z,27.62
2017-04-28T11:28:11.090Z,27.62
2017-04-28T11:29:21.520Z,27.62
2017-04-28T11:30:31.515Z,27.24
2017-04-28T11:31:41.750Z,27.72
2017-04-28T11:32:51.339Z,27.44
2017-04-28T11:34:01.539Z,27.34
2017-04-28T11:35:11.759Z,27.34
2017-04-28T11:36:22.228Z,27.53
2017-04-28T11:37:32.249Z,27.24
2017-04-28T11:38:42.148Z,27.44
2017-04-28T11:39:51.487Z,27.44
2017-04-28T11:41:00.785Z,27.24
2017-04-28T11:42:10.530Z,27.34
2017-04-28T11:43:20.426Z,27.34
2017-04-28T11:44:30.647Z,27.44
2017-04-28T11:45:39.960Z,27.34
2017-04-28T11:46:49.558Z,27.53
2017-04-28T11:47:59.012Z,27.62
2017-04-28T11:49:09.237Z,27.44
2017-04-28T11:50:19.165Z,27.14
2017-04-28T11:51:29.379Z,27.24
2017-04-28T11:52:38.668Z,27.14
2017-04-28T11:53:48.439Z,27.04
2017-04-28T11:54:58.350Z,27.04
2017-04-28T11:56:08.250Z,27.04
2017-04-28T11:57:18.470Z,27.14
2017-04-28T11:58:28.067Z,27.15
2017-04-28T11:59:38.116Z,27.06
2017-04-28T12:00:48.040Z,26.97
2017-04-28T12:01:57.638Z,27.15
2017-04-28T12:03:07.561Z,27.15
2017-04-28T12:04:17.462Z,27.06
2017-04-28T12:05:27.511Z,27.06
2017-04-28T12:06:37.722Z,26.97
2017-04-28T12:07:47.934Z,27.06
2017-04-28T12:08:57.837Z,27.04
2017-04-28T12:10:07.755Z,26.97
2017-04-28T12:11:17.820Z,27.06
2017-04-28T12:12:28.033Z,27.15
2017-04-28T12:13:38.239Z,27.06
2017-04-28T12:14:47.560Z,27.06
2017-04-28T12:15:57.473Z,27.15
2017-04-28T12:17:07.837Z,26.87
2017-04-28T12:18:17.764Z,26.97
2017-04-28T12:19:27.366Z,27.06
2017-04-28T12:20:36.971Z,27.15
2017-04-28T12:21:47.191Z,27.04
2017-04-28T12:22:57.263Z,27.24
2017-04-28T12:24:07.478Z,27.24
2017-04-28T12:25:17.386Z,27.44
2017-04-28T12:26:26.710Z,27.44
2017-04-28T12:27:36.930Z,27.44
2017-04-28T12:28:47.366Z,27.24
2017-04-28T12:29:57.331Z,27.24
2017-04-28T12:31:07.232Z,27.34
2017-04-28T12:32:17.157Z,27.44
2017-04-28T12:33:27.064Z,27.44
2017-04-28T12:34:37.126Z,27.44
2017-04-28T12:35:47.044Z,27.53
2017-04-28T12:36:56.956Z,27.44
2017-04-28T12:38:06.567Z,27.44
2017-04-28T12:39:16.489Z,27.53
2017-04-28T12:40:26.848Z,27.34
2017-04-28T12:41:37.059Z,27.34
2017-04-28T12:42:46.967Z,27.44
2017-04-28T12:43:56.261Z,27.44
2017-04-28T12:45:06.506Z,27.34
2017-04-28T12:46:16.973Z,27.53
2017-04-28T12:47:26.269Z,27.34
2017-04-28T12:48:36.169Z,27.34
2017-04-28T12:49:46.080Z,27.34
2017-04-28T12:50:55.473Z,27.44
2017-04-28T12:52:05.828Z,27.34
2017-04-28T12:53:15.424Z,27.24
2017-04-28T12:54:25.648Z,27.44
2017-04-28T12:55:35.243Z,27.24
2017-04-28T12:56:45.185Z,27.24
2017-04-28T12:57:55.547Z,27.44
2017-04-28T12:59:05.754Z,27.24
2017-04-28T13:00:15.665Z,27.44
2017-04-28T13:01:25.557Z,27.34
2017-04-28T13:02:35.158Z,27.44
2017-04-28T13:03:44.606Z,27.34
2017-04-28T13:04:54.825Z,27.44
2017-04-28T13:06:05.039Z,27.44
2017-04-28T13:07:14.634Z,27.44
2017-04-28T13:08:24.843Z,27.24
2017-04-28T13:09:34.542Z,27.44
2017-04-28T13:10:44.147Z,27.44
2017-04-28T13:11:54.076Z,27.24
2017-04-28T13:13:03.994Z,27.34
2017-04-28T13:14:13.598Z,27.34
2017-04-28T13:15:23.295Z,27.44
2017-04-28T13:16:33.220Z,27.53
2017-04-28T13:17:43.431Z,27.24
2017-04-28T13:18:53.342Z,27.24
2017-04-28T13:20:02.939Z,27.34
2017-04-28T13:21:12.641Z,27.44
2017-04-28T13:22:22.556Z,27.34
2017-04-28T13:23:32.775Z,27.34
2017-04-28T13:24:42.683Z,27.34
2017-04-28T13:25:52.612Z,27.44
2017-04-28T13:27:02.017Z,27.44
2017-04-28T13:28:12.227Z,27.44
2017-04-28T13:29:22.456Z,27.34
2017-04-28T13:30:32.364Z,27.44
2017-04-28T13:31:42.284Z,27.34
2017-04-28T13:32:52.586Z,27.44
2017-04-28T13:34:02.192Z,27.44
2017-04-28T13:35:12.103Z,27.44
2017-04-28T13:36:21.730Z,27.44
2017-04-28T13:37:31.371Z,27.44
2017-04-28T13:38:41.735Z,27.44
2017-04-28T13:39:51.643Z,27.34
2017-04-28T13:41:01.891Z,27.44
2017-04-28T13:42:11.493Z,27.44
2017-04-28T13:43:21.086Z,27.24
2017-04-28T13:44:31.136Z,27.24
2017-04-28T13:45:40.729Z,27.53
2017-04-28T13:46:50.933Z,27.44
2017-04-28T13:48:01.149Z,27.44
2017-04-28T13:49:11.063Z,27.34
2017-04-28T13:50:20.814Z,27.44
2017-04-28T13:51:30.723Z,27.72
2017-04-28T13:52:40.641Z,27.72
2017-04-28T13:53:50.856Z,27.81
2017-04-28T13:55:00.766Z,27.33
2017-04-28T13:56:10.512Z,27.61
2017-04-28T13:57:20.752Z,27.72
2017-04-28T13:58:30.977Z,27.53
2017-04-28T13:59:41.187Z,27.62
2017-04-28T14:00:51.400Z,27.53
2017-04-28T14:02:01.766Z,27.62
2017-04-28T14:03:11.675Z,27.62
2017-04-28T14:04:21.272Z,27.61
2017-04-28T14:05:31.482Z,27.82
2017-04-28T14:06:41.681Z,27.72
2017-04-28T14:07:51.736Z,27.71
2017-04-28T14:09:01.030Z,27.72
2017-04-28T14:10:11.246Z,27.62
2017-04-28T14:11:20.853Z,27.81
2017-04-28T14:12:30.778Z,27.72
2017-04-28T14:13:40.528Z,27.51
2017-04-28T14:14:50.731Z,27.82
2017-04-28T14:16:00.343Z,27.62
2017-04-28T14:17:09.960Z,27.61
2017-04-28T14:18:19.888Z,27.61
2017-04-28T14:19:29.955Z,27.51
2017-04-28T14:20:40.181Z,27.53
2017-04-28T14:21:50.128Z,27.71
2017-04-28T14:23:00.366Z,27.51
2017-04-28T14:24:10.322Z,27.61
2017-04-28T14:25:20.787Z,27.61
2017-04-28T14:26:30.086Z,27.81
2017-04-28T14:27:39.993Z,27.71
2017-04-28T14:28:49.903Z,27.81
2017-04-28T14:29:59.502Z,27.91
2017-04-28T14:31:09.885Z,28
2017-04-28T14:32:20.095Z,27.91
2017-04-28T14:33:30.319Z,27.91
2017-04-28T14:34:39.931Z,27.91
2017-04-28T14:35:49.835Z,28
2017-04-28T14:36:59.911Z,27.91
2017-04-28T14:38:09.828Z,27.81
2017-04-28T14:39:20.109Z,27.91
2017-04-28T14:40:30.016Z,27.91
2017-04-28T14:41:39.924Z,27.91
2017-04-28T14:42:49.382Z,27.91
2017-04-28T14:43:59.304Z,27.8
2017-04-28T14:45:09.243Z,27.89
2017-04-28T14:46:19.459Z,27.98
2017-04-28T14:47:29.676Z,27.98
2017-04-28T14:48:39.450Z,27.98
2017-04-28T14:49:49.365Z,27.81
2017-04-28T14:50:59.319Z,27.91
2017-04-28T14:52:09.528Z,27.89
2017-04-28T14:53:19.125Z,27.8
2017-04-28T14:54:28.569Z,28
2017-04-28T14:55:38.817Z,27.91
2017-04-28T14:56:49.033Z,27.91
2017-04-28T14:57:58.655Z,27.81
2017-04-28T14:59:08.876Z,27.91
2017-04-28T15:00:19.249Z,27.81
2017-04-28T15:01:28.845Z,27.91